Terminal Aerodrome Forecast
Issued by NWS Louisville, KY

Home | Current Version | Previous Version | Text Only | Print | Product List | Glossary On
Versions: 1 2 3 4 5 6 7 8 9 10 11 12 13 14 15
548
FTUS43 KLMK 251121
TAFLEX
TAF
KLEX 251121Z 2512/2612 19006KT P6SM SCT250
     FM251400 23010KT P6SM SCT035
     FM260000 22004KT P6SM SCT250
     FM260900 VRB03KT 4SM BR SCT250=

USA.gov is the U.S. government's official web portal to all federal, state and local government web resources and services.